createdAt,value
2022-09-21T00:01:33.198Z,7.77
2022-09-21T00:04:03.843Z,6.00
2022-09-21T00:06:33.536Z,7.23
2022-09-21T00:09:03.892Z,9.97
2022-09-21T00:11:34.637Z,7.27
2022-09-21T00:14:05.531Z,7.40
2022-09-21T00:16:33.785Z,8.17
2022-09-21T00:19:02.587Z,8.23
2022-09-21T00:21:30.743Z,10.10
2022-09-21T00:24:00.569Z,8.50
2022-09-21T00:26:29.630Z,8.20
2022-09-21T00:29:01.196Z,9.33
2022-09-21T00:31:31.110Z,10.87
2022-09-21T00:34:00.267Z,10.97
2022-09-21T00:36:29.322Z,11.60
2022-09-21T00:39:00.891Z,14.80
2022-09-21T00:41:30.428Z,13.83
2022-09-21T00:44:25.815Z,14.73
2022-09-21T00:46:56.669Z,12.00
2022-09-21T00:49:26.472Z,12.57
2022-09-21T00:51:55.007Z,11.10
2022-09-21T00:54:27.749Z,12.50
2022-09-21T00:56:59.803Z,17.80
2022-09-21T00:59:31.207Z,15.03
2022-09-21T01:02:00.134Z,12.30
2022-09-21T01:04:29.288Z,12.30
2022-09-21T01:06:59.513Z,15.00
2022-09-21T01:09:28.841Z,15.00
2022-09-21T01:12:09.985Z,10.70
2022-09-21T01:14:54.743Z,13.40
2022-09-21T01:17:32.540Z,13.60
2022-09-21T01:20:37.029Z,12.07
2022-09-21T01:23:23.225Z,15.30
2022-09-21T01:26:06.693Z,12.70
2022-09-21T01:29:04.877Z,13.27
2022-09-21T01:31:39.795Z,15.20
2022-09-21T01:34:19.421Z,13.90
2022-09-21T01:36:49.336Z,15.20
2022-09-21T01:39:20.721Z,11.60
2022-09-21T01:41:52.000Z,47.33
2022-09-21T01:44:24.344Z,14.27
2022-09-21T01:46:54.910Z,21.27
2022-09-21T01:49:27.698Z,13.53
2022-09-21T01:51:59.684Z,16.63
2022-09-21T01:54:33.585Z,16.90
2022-09-21T01:57:07.382Z,16.47
2022-09-21T01:59:43.901Z,18.37
2022-09-21T02:02:18.101Z,14.03
2022-09-21T02:04:46.643Z,16.37
2022-09-21T02:07:17.016Z,13.00
2022-09-21T02:09:47.559Z,18.43
2022-09-21T02:12:18.948Z,17.53
2022-09-21T02:14:47.840Z,14.10
2022-09-21T02:17:32.322Z,34.30
2022-09-21T02:20:17.652Z,17.40
2022-09-21T02:22:58.527Z,23.37
2022-09-21T02:25:36.997Z,31.93
2022-09-21T02:28:13.653Z,24.50
2022-09-21T02:30:48.885Z,15.27
2022-09-21T02:33:31.730Z,13.80
2022-09-21T02:36:08.375Z,15.63
2022-09-21T02:38:42.947Z,15.20
2022-09-21T02:41:16.912Z,24.20
2022-09-21T02:43:48.551Z,12.73
2022-09-21T02:46:21.128Z,13.80
2022-09-21T02:48:53.788Z,12.30
2022-09-21T02:51:27.250Z,13.23
2022-09-21T02:53:56.540Z,12.77
2022-09-21T02:56:26.087Z,13.70
2022-09-21T02:58:56.984Z,14.93
2022-09-21T03:01:27.809Z,15.87
2022-09-21T03:03:57.240Z,19.60
2022-09-21T03:06:25.644Z,15.30
2022-09-21T03:08:54.037Z,19.53
2022-09-21T03:11:24.172Z,18.03
2022-09-21T03:13:56.136Z,15.40
2022-09-21T03:16:25.449Z,16.57
2022-09-21T03:18:53.912Z,17.50
2022-09-21T03:21:23.378Z,16.13
2022-09-21T03:23:51.501Z,19.70
2022-09-21T03:26:22.254Z,16.47
2022-09-21T03:28:50.546Z,15.97
2022-09-21T03:31:18.974Z,14.80
2022-09-21T03:33:47.289Z,15.63
2022-09-21T03:36:15.624Z,15.33
2022-09-21T03:38:45.471Z,22.60
2022-09-21T03:41:14.104Z,17.77
2022-09-21T03:43:42.264Z,19.30
2022-09-21T03:46:10.376Z,24.23
2022-09-21T03:48:40.710Z,18.60
2022-09-21T03:51:09.043Z,17.67
2022-09-21T03:53:37.291Z,17.87
2022-09-21T03:56:07.330Z,16.27
2022-09-21T03:58:35.433Z,15.90
2022-09-21T04:01:04.661Z,18.50
2022-09-21T04:03:32.888Z,17.90
2022-09-21T04:06:01.798Z,15.33
2022-09-21T04:08:30.002Z,18.63
2022-09-21T04:10:58.141Z,21.13
2022-09-21T04:13:27.658Z,16.17
2022-09-21T04:15:55.787Z,15.70
2022-09-21T04:18:24.024Z,17.00
2022-09-21T04:20:52.421Z,23.97
2022-09-21T04:23:20.719Z,17.17
2022-09-21T04:25:51.248Z,16.00
2022-09-21T04:28:19.597Z,18.80
2022-09-21T04:30:49.201Z,16.80
2022-09-21T04:33:17.394Z,16.10
2022-09-21T04:35:45.850Z,17.50
2022-09-21T04:38:13.859Z,18.87
2022-09-21T04:40:42.027Z,16.53
2022-09-21T04:43:10.261Z,14.50
2022-09-21T04:45:39.400Z,17.10
2022-09-21T04:48:08.868Z,18.37
2022-09-21T04:50:39.418Z,21.10
2022-09-21T04:53:07.595Z,16.50
2022-09-21T04:55:35.936Z,17.43
2022-09-21T04:58:03.963Z,19.10
2022-09-21T05:00:32.070Z,16.60
2022-09-21T05:03:00.115Z,19.40
2022-09-21T05:05:29.494Z,16.60
2022-09-21T05:07:57.508Z,14.10
2022-09-21T05:10:24.835Z,18.13
2022-09-21T05:12:53.499Z,13.47
2022-09-21T05:15:22.375Z,18.63
2022-09-21T05:17:50.639Z,17.93
2022-09-21T05:20:20.553Z,14.83
2022-09-21T05:22:50.010Z,16.03
2022-09-21T05:25:18.406Z,15.17
2022-09-21T05:27:46.430Z,16.33
2022-09-21T05:30:15.844Z,13.73
2022-09-21T05:32:49.216Z,22.90
2022-09-21T05:35:25.713Z,20.73
2022-09-21T05:37:58.528Z,18.30
2022-09-21T05:40:27.329Z,15.80
2022-09-21T05:42:56.188Z,15.17
2022-09-21T05:45:24.958Z,19.00
2022-09-21T05:48:03.574Z,24.60
2022-09-21T05:50:41.931Z,17.63
2022-09-21T05:53:32.290Z,19.77
2022-09-21T05:56:05.726Z,22.73
2022-09-21T05:58:41.816Z,19.40
2022-09-21T06:01:21.991Z,20.33
2022-09-21T06:03:50.647Z,19.33
2022-09-21T06:06:19.393Z,16.30
2022-09-21T06:08:48.940Z,18.87
2022-09-21T06:11:17.355Z,18.27
2022-09-21T06:13:45.526Z,15.53
2022-09-21T06:16:14.098Z,20.10
2022-09-21T06:18:43.430Z,13.23
2022-09-21T06:21:11.803Z,18.10
2022-09-21T06:23:39.975Z,12.70
2022-09-21T06:26:09.581Z,12.27
2022-09-21T06:28:37.641Z,11.43
2022-09-21T06:31:06.275Z,9.57
2022-09-21T06:33:35.726Z,12.47
2022-09-21T06:36:04.318Z,12.33
2022-09-21T06:38:32.584Z,13.00
2022-09-21T06:41:03.614Z,9.50
2022-09-21T06:43:33.475Z,10.60
2022-09-21T06:46:03.058Z,12.77
2022-09-21T06:48:33.613Z,13.80
2022-09-21T06:51:03.150Z,13.47
2022-09-21T06:53:32.775Z,10.07
2022-09-21T06:56:04.716Z,11.37
2022-09-21T06:58:35.177Z,12.17
2022-09-21T07:01:08.394Z,11.70
2022-09-21T07:03:36.818Z,12.07
2022-09-21T07:06:05.182Z,12.33
2022-09-21T07:11:22.617Z,17.73
2022-09-21T07:13:52.769Z,15.97
2022-09-21T07:16:21.513Z,13.80
2022-09-21T07:18:50.067Z,13.03
2022-09-21T07:21:18.149Z,16.20
2022-09-21T07:23:46.166Z,11.73
2022-09-21T07:26:15.080Z,16.03
2022-09-21T07:28:43.393Z,11.80
2022-09-21T07:31:15.447Z,11.60
2022-09-21T07:33:44.284Z,9.93
2022-09-21T07:36:13.261Z,11.43
2022-09-21T07:38:43.102Z,10.37
2022-09-21T07:41:12.789Z,13.03
2022-09-21T07:43:41.155Z,15.50
2022-09-21T07:46:11.031Z,10.83
2022-09-21T07:48:40.574Z,8.50
2022-09-21T07:51:11.202Z,8.27
2022-09-21T07:53:41.295Z,7.83
2022-09-21T07:56:11.383Z,15.83
2022-09-21T07:58:58.031Z,8.20
2022-09-21T08:01:27.552Z,8.27
2022-09-21T08:03:58.806Z,7.90
2022-09-21T08:06:28.407Z,7.97
2022-09-21T08:08:57.934Z,11.23
2022-09-21T08:11:28.337Z,10.27
2022-09-21T08:13:58.577Z,11.90
2022-09-21T08:16:27.282Z,10.27
2022-09-21T08:18:56.890Z,8.63
2022-09-21T08:21:24.919Z,9.90
2022-09-21T08:23:52.958Z,12.30
2022-09-21T08:26:23.791Z,10.17
2022-09-21T08:28:56.503Z,10.13
2022-09-21T08:31:25.142Z,11.03
2022-09-21T08:33:53.911Z,9.10
2022-09-21T08:36:23.357Z,7.60
2022-09-21T08:38:51.527Z,10.80
2022-09-21T08:41:23.314Z,7.73
2022-09-21T08:43:54.272Z,7.73
2022-09-21T08:46:25.749Z,11.00
2022-09-21T08:49:00.459Z,8.60
2022-09-21T08:51:34.046Z,7.70
2022-09-21T08:54:07.996Z,8.43
2022-09-21T08:57:01.045Z,7.40
2022-09-21T08:59:26.163Z,7.73
2022-09-21T09:02:02.860Z,13.40
2022-09-21T09:04:54.543Z,9.70
2022-09-21T09:07:48.973Z,7.23
2022-09-21T09:10:30.794Z,14.70
2022-09-21T09:13:10.881Z,6.73
2022-09-21T09:16:00.299Z,7.03
2022-09-21T09:18:43.288Z,5.10
2022-09-21T09:21:26.087Z,7.73
2022-09-21T09:24:02.982Z,6.30
2022-09-21T09:26:37.306Z,6.57
2022-09-21T09:29:14.666Z,7.17
2022-09-21T09:31:43.499Z,6.63
2022-09-21T09:34:16.514Z,6.50
2022-09-21T09:37:05.097Z,6.03
2022-09-21T09:39:34.556Z,6.37
2022-09-21T09:42:18.119Z,7.23
2022-09-21T09:45:26.462Z,6.43
2022-09-21T09:48:21.719Z,6.10
2022-09-21T09:50:50.106Z,6.20
2022-09-21T09:53:21.557Z,6.77
2022-09-21T09:55:53.248Z,7.50
2022-09-21T09:58:23.363Z,8.30
2022-09-21T10:00:54.094Z,7.17
2022-09-21T10:03:24.538Z,8.93
2022-09-21T10:05:53.232Z,8.00
2022-09-21T10:08:47.310Z,5.87
2022-09-21T10:11:17.980Z,8.13
2022-09-21T10:13:48.291Z,7.97
2022-09-21T10:16:21.462Z,8.17
2022-09-21T10:18:51.485Z,6.90
2022-09-21T10:21:22.574Z,6.23
2022-09-21T10:23:52.712Z,8.40
2022-09-21T10:26:22.976Z,7.57
2022-09-21T10:28:58.343Z,8.33
2022-09-21T10:31:27.780Z,6.87
2022-09-21T10:34:08.405Z,5.90
2022-09-21T10:36:38.860Z,7.30
2022-09-21T10:39:28.413Z,8.50
2022-09-21T10:42:02.858Z,7.77
2022-09-21T10:44:40.907Z,11.37
2022-09-21T10:47:23.948Z,8.43
2022-09-21T10:49:56.582Z,10.20
2022-09-21T10:52:33.316Z,10.07
2022-09-21T10:55:01.635Z,19.23
2022-09-21T10:57:33.595Z,7.20
2022-09-21T11:00:14.021Z,7.10
2022-09-21T11:02:43.012Z,7.33
2022-09-21T11:05:16.619Z,6.80
2022-09-21T11:07:50.522Z,8.80
2022-09-21T11:10:25.668Z,8.33
2022-09-21T11:13:07.692Z,7.60
2022-09-21T11:15:45.775Z,6.70
2022-09-21T11:18:20.458Z,9.30
2022-09-21T11:20:53.663Z,6.70
2022-09-21T11:23:45.171Z,6.43
2022-09-21T11:26:30.874Z,6.40
2022-09-21T11:29:08.338Z,6.27
2022-09-21T11:32:05.974Z,6.63
2022-09-21T11:34:58.446Z,7.03
2022-09-21T11:37:40.300Z,4.63
2022-09-21T11:40:26.603Z,5.50
2022-09-21T11:43:20.555Z,6.50
2022-09-21T11:46:08.803Z,5.23
2022-09-21T11:49:00.413Z,6.00
2022-09-21T11:51:47.898Z,5.57
2022-09-21T11:54:39.065Z,7.67
2022-09-21T11:57:18.790Z,4.60
2022-09-21T12:00:01.983Z,5.37
2022-09-21T12:03:03.795Z,5.43
2022-09-21T12:05:39.930Z,4.60
2022-09-21T12:08:40.422Z,4.70
2022-09-21T12:11:16.720Z,7.03
2022-09-21T12:13:51.826Z,6.80
2022-09-21T12:16:30.602Z,4.30
2022-09-21T12:19:07.375Z,7.40
2022-09-21T12:21:39.520Z,4.13
2022-09-21T12:24:16.057Z,4.00
2022-09-21T12:26:47.907Z,4.90
2022-09-21T12:29:25.258Z,3.63
2022-09-21T12:32:02.869Z,3.90
2022-09-21T12:34:40.098Z,8.00
2022-09-21T12:37:13.126Z,3.83
2022-09-21T12:39:45.591Z,4.67
2022-09-21T12:42:27.582Z,5.27
2022-09-21T12:45:00.893Z,5.03
2022-09-21T12:47:41.171Z,3.30
2022-09-21T12:50:21.124Z,5.67
2022-09-21T12:52:51.126Z,3.93
2022-09-21T12:55:36.915Z,3.80
2022-09-21T12:58:15.500Z,2.10
2022-09-21T13:01:03.284Z,2.33
2022-09-21T13:03:39.891Z,3.30
2022-09-21T13:06:39.772Z,3.57
2022-09-21T13:09:12.763Z,2.20
2022-09-21T13:11:54.442Z,4.33
2022-09-21T13:14:24.175Z,2.50
2022-09-21T13:16:58.569Z,2.10
2022-09-21T13:19:29.084Z,2.53
2022-09-21T13:22:22.964Z,3.50
2022-09-21T13:25:03.017Z,2.77
2022-09-21T13:28:07.647Z,3.00
2022-09-21T13:30:40.915Z,3.70
2022-09-21T13:33:30.955Z,3.90
2022-09-21T13:36:30.031Z,3.57
2022-09-21T13:39:20.023Z,2.50
2022-09-21T13:42:04.117Z,5.83
2022-09-21T13:44:44.115Z,5.60
2022-09-21T13:47:14.587Z,3.67
2022-09-21T13:49:53.936Z,4.40
2022-09-21T13:52:41.514Z,4.37
2022-09-21T13:55:25.918Z,4.40
2022-09-21T13:57:56.726Z,3.63
2022-09-21T14:00:35.007Z,3.33
2022-09-21T14:03:06.050Z,3.10
2022-09-21T14:05:40.190Z,4.50
2022-09-21T14:08:21.994Z,3.40
2022-09-21T14:10:55.453Z,2.67
2022-09-21T14:13:32.083Z,3.37
2022-09-21T14:16:34.026Z,4.40
2022-09-21T14:19:03.426Z,2.73
2022-09-21T14:21:31.877Z,4.47
2022-09-21T14:24:23.517Z,3.80
2022-09-21T14:27:05.231Z,3.27
2022-09-21T14:29:44.213Z,4.60
2022-09-21T14:32:17.268Z,3.90
2022-09-21T14:34:49.626Z,2.57
2022-09-21T14:37:28.976Z,2.17
2022-09-21T14:39:58.249Z,2.80
2022-09-21T14:42:30.139Z,2.33
2022-09-21T14:45:00.367Z,2.57
2022-09-21T14:47:42.182Z,2.27
2022-09-21T14:50:26.903Z,4.03
2022-09-21T14:53:29.236Z,2.80
2022-09-21T14:56:10.783Z,2.77
2022-09-21T14:58:52.374Z,2.47
2022-09-21T15:01:27.223Z,3.50
2022-09-21T15:04:10.964Z,3.10
2022-09-21T15:07:02.859Z,2.70
2022-09-21T15:10:02.617Z,2.70
2022-09-21T15:12:47.050Z,2.90
2022-09-21T15:15:30.833Z,3.57
2022-09-21T15:18:01.888Z,4.70
2022-09-21T15:20:32.917Z,8.20
2022-09-21T15:23:02.150Z,3.80
2022-09-21T15:25:33.599Z,2.60
2022-09-21T15:28:01.961Z,4.50
2022-09-21T15:30:34.166Z,3.27
2022-09-21T15:33:03.651Z,4.80
2022-09-21T15:35:34.212Z,2.60
2022-09-21T15:38:02.404Z,3.37
2022-09-21T15:40:33.334Z,5.70
2022-09-21T15:43:05.556Z,9.03
2022-09-21T15:45:51.846Z,4.80
2022-09-21T15:48:20.589Z,4.87
2022-09-21T15:50:52.809Z,3.47
2022-09-21T15:53:24.620Z,2.60
2022-09-21T15:55:53.025Z,27.43
2022-09-21T15:58:31.709Z,15.77
2022-09-21T16:01:01.426Z,17.93
2022-09-21T16:03:30.073Z,3.90
2022-09-21T16:06:02.344Z,10.60
2022-09-21T16:08:33.539Z,3.67
2022-09-21T16:11:14.267Z,3.40
2022-09-21T16:14:00.696Z,3.80
2022-09-21T16:16:30.193Z,6.90
2022-09-21T16:19:00.590Z,4.37
2022-09-21T16:21:32.814Z,3.77
2022-09-21T16:24:12.326Z,2.70
2022-09-21T16:26:42.598Z,3.50
2022-09-21T16:29:23.480Z,3.67
2022-09-21T16:31:53.529Z,7.23
2022-09-21T16:34:26.541Z,19.73
2022-09-21T16:36:55.015Z,4.30
2022-09-21T16:39:23.941Z,3.77
2022-09-21T16:41:58.347Z,5.77
2022-09-21T16:44:27.968Z,15.20
2022-09-21T16:47:00.242Z,8.40
2022-09-21T16:49:33.544Z,8.30
2022-09-21T16:52:01.891Z,2.63
2022-09-21T16:54:31.003Z,3.17
2022-09-21T16:57:00.769Z,4.13
2022-09-21T16:59:29.415Z,5.10
2022-09-21T17:02:00.396Z,3.00
2022-09-21T17:04:31.282Z,11.30
2022-09-21T17:07:00.804Z,3.43
2022-09-21T17:09:32.329Z,4.03
2022-09-21T17:12:01.774Z,3.73
2022-09-21T17:14:35.608Z,7.40
2022-09-21T17:17:08.895Z,4.87
2022-09-21T17:19:42.122Z,9.70
2022-09-21T17:22:17.322Z,5.60
2022-09-21T17:24:50.804Z,7.80
2022-09-21T17:27:21.443Z,8.17
2022-09-21T17:29:50.599Z,4.90
2022-09-21T17:32:22.011Z,5.07
2022-09-21T17:34:56.297Z,8.03
2022-09-21T17:37:25.324Z,4.67
2022-09-21T17:39:54.562Z,8.90
2022-09-21T17:42:26.075Z,7.07
2022-09-21T17:45:04.915Z,9.53
2022-09-21T17:47:35.044Z,10.07
2022-09-21T17:50:16.635Z,14.00
2022-09-21T17:53:04.077Z,13.83
2022-09-21T17:55:32.908Z,22.90
2022-09-21T17:58:31.100Z,24.70
2022-09-21T18:01:07.459Z,12.77
2022-09-21T18:03:42.396Z,8.30
2022-09-21T18:06:11.861Z,8.60
2022-09-21T18:08:40.900Z,12.00
2022-09-21T18:11:20.242Z,11.43
2022-09-21T18:13:57.072Z,6.83
2022-09-21T18:16:28.542Z,8.50
2022-09-21T18:19:05.755Z,6.90
2022-09-21T18:21:38.238Z,20.97
2022-09-21T18:24:21.008Z,42.17
2022-09-21T18:26:52.320Z,18.90
2022-09-21T18:29:46.514Z,20.60
2022-09-21T18:32:41.123Z,18.63
2022-09-21T18:35:36.114Z,10.47
2022-09-21T18:38:18.365Z,5.60
2022-09-21T18:41:00.371Z,8.70
2022-09-21T18:43:35.429Z,8.80
2022-09-21T18:46:07.807Z,7.10
2022-09-21T18:48:50.847Z,4.67
2022-09-21T18:51:24.963Z,4.67
2022-09-21T18:53:56.061Z,5.53
2022-09-21T18:56:25.188Z,6.30
2022-09-21T18:58:54.019Z,5.17
2022-09-21T19:01:23.737Z,6.97
2022-09-21T19:03:52.523Z,6.77
2022-09-21T19:06:32.594Z,13.30
2022-09-21T19:09:08.898Z,12.83
2022-09-21T19:11:44.676Z,16.07
2022-09-21T19:14:21.630Z,13.70
2022-09-21T19:17:04.995Z,37.10
2022-09-21T19:19:41.783Z,22.27
2022-09-21T19:22:16.546Z,16.97
2022-09-21T19:24:55.997Z,13.73
2022-09-21T19:27:33.393Z,12.87
2022-09-21T19:30:06.987Z,13.43
2022-09-21T19:32:39.870Z,12.43
2022-09-21T19:35:19.595Z,12.93
2022-09-21T19:37:50.245Z,12.03
2022-09-21T19:40:20.470Z,12.83
2022-09-21T19:43:06.178Z,8.60
2022-09-21T19:45:45.575Z,7.07
2022-09-21T19:48:16.943Z,5.33
2022-09-21T19:50:53.173Z,7.27
2022-09-21T19:53:40.997Z,7.10
2022-09-21T19:56:29.968Z,7.97
2022-09-21T19:59:15.998Z,7.80
2022-09-21T20:01:52.533Z,8.50
2022-09-21T20:04:28.010Z,9.07
2022-09-21T20:07:03.270Z,13.90
2022-09-21T20:09:38.148Z,14.00
2022-09-21T20:12:16.064Z,16.97
2022-09-21T20:14:48.320Z,10.73
2022-09-21T20:17:22.122Z,11.87
2022-09-21T20:19:55.958Z,9.60
2022-09-21T20:22:34.295Z,13.07
2022-09-21T20:25:10.930Z,12.37
2022-09-21T20:27:41.610Z,12.00
2022-09-21T20:30:12.209Z,10.57
2022-09-21T20:32:42.865Z,12.53
2022-09-21T20:35:17.038Z,9.77
2022-09-21T20:37:45.668Z,10.33
2022-09-21T20:40:16.359Z,8.27
2022-09-21T20:42:44.569Z,10.23
2022-09-21T20:45:13.942Z,12.67
2022-09-21T20:47:42.143Z,9.40
2022-09-21T20:50:13.530Z,9.87
2022-09-21T20:52:42.550Z,7.97
2022-09-21T20:55:13.415Z,7.33
2022-09-21T20:57:42.849Z,5.93
2022-09-21T21:00:13.134Z,8.37
2022-09-21T21:02:41.692Z,7.90
2022-09-21T21:05:11.168Z,9.37
2022-09-21T21:07:42.375Z,5.93
2022-09-21T21:10:13.208Z,8.23
2022-09-21T21:12:42.836Z,6.30
2022-09-21T21:15:12.489Z,6.33
2022-09-21T21:17:40.941Z,6.10
2022-09-21T21:20:10.346Z,7.97
2022-09-21T21:22:38.389Z,5.87
2022-09-21T21:25:07.172Z,7.30
2022-09-21T21:27:35.815Z,6.30
2022-09-21T21:30:06.932Z,9.73
2022-09-21T21:32:35.156Z,8.30
2022-09-21T21:35:03.538Z,9.30
2022-09-21T21:37:31.789Z,7.77
2022-09-21T21:39:59.873Z,16.77
2022-09-21T21:42:29.491Z,7.90
2022-09-21T21:44:57.769Z,8.83
2022-09-21T21:47:39.172Z,8.50
2022-09-21T21:50:08.211Z,7.40
2022-09-21T21:52:36.258Z,11.97
2022-09-21T21:55:04.923Z,12.80
2022-09-21T21:57:33.197Z,16.10
2022-09-21T22:00:01.367Z,17.33
2022-09-21T22:02:32.363Z,16.40
2022-09-21T22:05:00.650Z,22.67
2022-09-21T22:07:28.628Z,13.77
2022-09-21T22:09:56.658Z,15.40
2022-09-21T22:12:26.078Z,21.43
2022-09-21T22:14:54.039Z,8.90
2022-09-21T22:17:22.039Z,9.50
2022-09-21T22:19:51.369Z,8.13
2022-09-21T22:22:19.651Z,8.20
2022-09-21T22:24:48.036Z,7.50
2022-09-21T22:27:16.412Z,9.93
2022-09-21T22:29:44.956Z,10.33
2022-09-21T22:32:13.068Z,8.57
2022-09-21T22:34:41.098Z,8.80
2022-09-21T22:37:10.682Z,8.20
2022-09-21T22:39:38.659Z,8.93
2022-09-21T22:42:06.975Z,15.67
2022-09-21T22:44:35.278Z,9.70
2022-09-21T22:47:03.574Z,9.33
2022-09-21T22:49:31.848Z,9.03
2022-09-21T22:51:59.927Z,10.23
2022-09-21T22:54:29.290Z,6.37
2022-09-21T22:56:57.629Z,10.53
2022-09-21T22:59:25.918Z,8.20
2022-09-21T23:01:54.246Z,8.90
2022-09-21T23:04:22.397Z,8.87
2022-09-21T23:06:51.193Z,10.30
2022-09-21T23:09:21.605Z,8.20
2022-09-21T23:11:53.166Z,8.77
2022-09-21T23:14:22.579Z,7.67
2022-09-21T23:16:50.698Z,8.60
2022-09-21T23:19:18.682Z,9.73
2022-09-21T23:21:49.540Z,8.23
2022-09-21T23:24:18.213Z,9.43
2022-09-21T23:26:46.649Z,7.80
2022-09-21T23:29:17.039Z,10.53
2022-09-21T23:31:46.417Z,9.00
2022-09-21T23:34:15.236Z,8.03
2022-09-21T23:36:45.013Z,9.80
2022-09-21T23:39:14.291Z,8.57
2022-09-21T23:41:42.499Z,10.20
2022-09-21T23:44:10.655Z,12.63
2022-09-21T23:46:41.031Z,12.37
2022-09-21T23:49:09.448Z,9.23
2022-09-21T23:51:37.794Z,8.00
2022-09-21T23:54:06.372Z,11.33
2022-09-21T23:56:34.710Z,9.47
2022-09-21T23:59:02.815Z,8.30
